FLUGWETTER MÜNCHEN AIRPORT

[source: ADDS]
METAR
EDDM 280150Z VRB01KT CAVOK M02/M05 Q1022 NOSIG =
TAF
TAF EDDM 272300Z 2800/2906 VRB02KT CAVOK BECMG 2807/2809 26006KT =
SR / SS: 04:59 / 17:39 UTC (Tag 2017-03-28)

QR-Code dieser Seite

QR-Code dieser Seite